sensor_id;sensor_type;location;lat;lon;timestamp;P1;durP1;ratioP1;P2;durP2;ratioP2
54921;SDS011;40824;45.116;21.296;2023-05-16T00:00:17;10.23;;;6.88;;
54921;SDS011;40824;45.116;21.296;2023-05-16T00:02:44;11.02;;;7.45;;
54921;SDS011;40824;45.116;21.296;2023-05-16T00:05:10;14.70;;;7.38;;
54921;SDS011;40824;45.116;21.296;2023-05-16T00:07:40;12.68;;;6.43;;
54921;SDS011;40824;45.116;21.296;2023-05-16T00:10:07;11.73;;;7.40;;
54921;SDS011;40824;45.116;21.296;2023-05-16T00:12:33;13.73;;;7.28;;
54921;SDS011;40824;45.116;21.296;2023-05-16T00:15:00;14.05;;;6.63;;
54921;SDS011;40824;45.116;21.296;2023-05-16T00:17:27;10.05;;;6.53;;
54921;SDS011;40824;45.116;21.296;2023-05-16T00:19:53;14.00;;;6.75;;
54921;SDS011;40824;45.116;21.296;2023-05-16T00:22:22;14.68;;;6.53;;
54921;SDS011;40824;45.116;21.296;2023-05-16T00:24:48;11.48;;;6.80;;
54921;SDS011;40824;45.116;21.296;2023-05-16T00:27:14;11.20;;;6.65;;
54921;SDS011;40824;45.116;21.296;2023-05-16T00:29:40;9.95;;;7.40;;
54921;SDS011;40824;45.116;21.296;2023-05-16T00:32:07;10.65;;;6.35;;
54921;SDS011;40824;45.116;21.296;2023-05-16T00:34:33;10.70;;;6.53;;
54921;SDS011;40824;45.116;21.296;2023-05-16T00:36:59;9.35;;;6.25;;
54921;SDS011;40824;45.116;21.296;2023-05-16T00:39:25;17.13;;;7.15;;
54921;SDS011;40824;45.116;21.296;2023-05-16T00:41:52;11.65;;;6.28;;
54921;SDS011;40824;45.116;21.296;2023-05-16T00:44:18;11.93;;;6.32;;
54921;SDS011;40824;45.116;21.296;2023-05-16T00:46:44;11.55;;;6.60;;
54921;SDS011;40824;45.116;21.296;2023-05-16T00:49:10;10.50;;;6.30;;
54921;SDS011;40824;45.116;21.296;2023-05-16T00:51:37;10.93;;;6.03;;
54921;SDS011;40824;45.116;21.296;2023-05-16T00:54:04;14.15;;;6.43;;
54921;SDS011;40824;45.116;21.296;2023-05-16T00:56:30;14.52;;;5.82;;
54921;SDS011;40824;45.116;21.296;2023-05-16T00:58:56;10.52;;;6.05;;
54921;SDS011;40824;45.116;21.296;2023-05-16T01:01:24;10.60;;;6.50;;
54921;SDS011;40824;45.116;21.296;2023-05-16T01:03:51;13.32;;;6.80;;
54921;SDS011;40824;45.116;21.296;2023-05-16T01:06:17;12.75;;;7.78;;
54921;SDS011;40824;45.116;21.296;2023-05-16T01:08:44;11.35;;;8.43;;
54921;SDS011;40824;45.116;21.296;2023-05-16T01:11:26;11.77;;;7.68;;
54921;SDS011;40824;45.116;21.296;2023-05-16T01:16:31;11.63;;;7.90;;
54921;SDS011;40824;45.116;21.296;2023-05-16T01:19:03;14.15;;;8.48;;
54921;SDS011;40824;45.116;21.296;2023-05-16T01:24:03;12.98;;;8.32;;
54921;SDS011;40824;45.116;21.296;2023-05-16T01:26:35;12.15;;;8.73;;
54921;SDS011;40824;45.116;21.296;2023-05-16T01:29:01;12.80;;;8.00;;
54921;SDS011;40824;45.116;21.296;2023-05-16T01:31:28;13.55;;;5.90;;
54921;SDS011;40824;45.116;21.296;2023-05-16T01:33:54;6.40;;;4.68;;
54921;SDS011;40824;45.116;21.296;2023-05-16T01:36:24;10.77;;;5.53;;
54921;SDS011;40824;45.116;21.296;2023-05-16T01:38:55;8.57;;;5.15;;
54921;SDS011;40824;45.116;21.296;2023-05-16T01:44:00;11.10;;;5.63;;
54921;SDS011;40824;45.116;21.296;2023-05-16T01:46:28;8.45;;;4.80;;
54921;SDS011;40824;45.116;21.296;2023-05-16T01:49:14;8.88;;;4.78;;
54921;SDS011;40824;45.116;21.296;2023-05-16T01:51:41;9.13;;;5.00;;
54921;SDS011;40824;45.116;21.296;2023-05-16T01:54:10;12.93;;;6.60;;
54921;SDS011;40824;45.116;21.296;2023-05-16T01:56:37;11.30;;;4.95;;
54921;SDS011;40824;45.116;21.296;2023-05-16T01:59:04;10.93;;;4.90;;
54921;SDS011;40824;45.116;21.296;2023-05-16T02:01:30;8.80;;;4.80;;
54921;SDS011;40824;45.116;21.296;2023-05-16T02:03:56;9.38;;;5.22;;
54921;SDS011;40824;45.116;21.296;2023-05-16T02:06:22;9.77;;;5.00;;
54921;SDS011;40824;45.116;21.296;2023-05-16T02:08:50;13.68;;;6.63;;
54921;SDS011;40824;45.116;21.296;2023-05-16T02:11:16;12.55;;;6.90;;
54921;SDS011;40824;45.116;21.296;2023-05-16T02:13:43;12.05;;;6.18;;
54921;SDS011;40824;45.116;21.296;2023-05-16T02:16:10;10.43;;;6.78;;
54921;SDS011;40824;45.116;21.296;2023-05-16T02:18:36;11.75;;;6.72;;
54921;SDS011;40824;45.116;21.296;2023-05-16T02:21:02;10.52;;;6.20;;
54921;SDS011;40824;45.116;21.296;2023-05-16T02:23:28;14.55;;;7.38;;
54921;SDS011;40824;45.116;21.296;2023-05-16T02:25:54;9.82;;;5.90;;
54921;SDS011;40824;45.116;21.296;2023-05-16T02:28:20;10.65;;;5.95;;
54921;SDS011;40824;45.116;21.296;2023-05-16T02:30:54;10.20;;;6.30;;
54921;SDS011;40824;45.116;21.296;2023-05-16T02:33:21;14.38;;;7.40;;
54921;SDS011;40824;45.116;21.296;2023-05-16T02:35:47;12.00;;;7.00;;
54921;SDS011;40824;45.116;21.296;2023-05-16T02:38:13;10.15;;;5.30;;
54921;SDS011;40824;45.116;21.296;2023-05-16T02:40:41;12.88;;;6.03;;
54921;SDS011;40824;45.116;21.296;2023-05-16T02:43:07;8.25;;;5.13;;
54921;SDS011;40824;45.116;21.296;2023-05-16T02:45:34;11.45;;;5.20;;
54921;SDS011;40824;45.116;21.296;2023-05-16T02:48:00;9.52;;;5.18;;
54921;SDS011;40824;45.116;21.296;2023-05-16T02:50:26;8.02;;;5.50;;
54921;SDS011;40824;45.116;21.296;2023-05-16T02:52:52;8.50;;;4.70;;
54921;SDS011;40824;45.116;21.296;2023-05-16T02:55:18;8.95;;;5.35;;
54921;SDS011;40824;45.116;21.296;2023-05-16T02:57:44;7.57;;;4.97;;
54921;SDS011;40824;45.116;21.296;2023-05-16T03:00:11;9.85;;;5.68;;
54921;SDS011;40824;45.116;21.296;2023-05-16T03:02:38;9.93;;;4.93;;
54921;SDS011;40824;45.116;21.296;2023-05-16T03:05:04;15.05;;;5.55;;
54921;SDS011;40824;45.116;21.296;2023-05-16T03:07:30;8.82;;;5.05;;
54921;SDS011;40824;45.116;21.296;2023-05-16T03:09:56;12.20;;;5.38;;
54921;SDS011;40824;45.116;21.296;2023-05-16T03:12:22;11.30;;;5.43;;
54921;SDS011;40824;45.116;21.296;2023-05-16T03:14:48;9.55;;;5.68;;
54921;SDS011;40824;45.116;21.296;2023-05-16T03:17:15;12.65;;;5.93;;
54921;SDS011;40824;45.116;21.296;2023-05-16T03:19:41;8.48;;;5.80;;
54921;SDS011;40824;45.116;21.296;2023-05-16T03:22:07;12.60;;;6.57;;
54921;SDS011;40824;45.116;21.296;2023-05-16T03:24:33;12.40;;;6.35;;
54921;SDS011;40824;45.116;21.296;2023-05-16T03:26:59;10.10;;;5.90;;
54921;SDS011;40824;45.116;21.296;2023-05-16T03:29:29;13.82;;;6.13;;
54921;SDS011;40824;45.116;21.296;2023-05-16T03:31:55;9.75;;;5.82;;
54921;SDS011;40824;45.116;21.296;2023-05-16T03:34:21;13.23;;;5.72;;
54921;SDS011;40824;45.116;21.296;2023-05-16T03:36:48;10.63;;;5.78;;
54921;SDS011;40824;45.116;21.296;2023-05-16T03:39:14;9.43;;;5.70;;
54921;SDS011;40824;45.116;21.296;2023-05-16T03:41:40;12.73;;;5.55;;
54921;SDS011;40824;45.116;21.296;2023-05-16T03:44:06;7.32;;;5.80;;
54921;SDS011;40824;45.116;21.296;2023-05-16T03:46:33;10.48;;;5.70;;
54921;SDS011;40824;45.116;21.296;2023-05-16T03:48:59;10.90;;;7.15;;
54921;SDS011;40824;45.116;21.296;2023-05-16T03:51:26;10.50;;;5.93;;
54921;SDS011;40824;45.116;21.296;2023-05-16T03:53:52;17.55;;;5.60;;
54921;SDS011;40824;45.116;21.296;2023-05-16T03:56:18;9.13;;;6.22;;
54921;SDS011;40824;45.116;21.296;2023-05-16T03:58:45;8.70;;;5.43;;
54921;SDS011;40824;45.116;21.296;2023-05-16T04:01:12;9.30;;;5.80;;
54921;SDS011;40824;45.116;21.296;2023-05-16T04:03:38;12.65;;;5.55;;
54921;SDS011;40824;45.116;21.296;2023-05-16T04:06:05;11.35;;;6.90;;
54921;SDS011;40824;45.116;21.296;2023-05-16T04:08:31;9.77;;;5.93;;
54921;SDS011;40824;45.116;21.296;2023-05-16T04:10:57;9.18;;;5.45;;
54921;SDS011;40824;45.116;21.296;2023-05-16T04:13:23;11.82;;;6.40;;
54921;SDS011;40824;45.116;21.296;2023-05-16T04:15:49;9.07;;;5.75;;
54921;SDS011;40824;45.116;21.296;2023-05-16T04:18:15;8.82;;;5.20;;
54921;SDS011;40824;45.116;21.296;2023-05-16T04:20:42;9.30;;;5.90;;
54921;SDS011;40824;45.116;21.296;2023-05-16T04:23:08;9.60;;;5.63;;
54921;SDS011;40824;45.116;21.296;2023-05-16T04:25:38;7.70;;;5.15;;
54921;SDS011;40824;45.116;21.296;2023-05-16T04:28:04;9.52;;;5.45;;
54921;SDS011;40824;45.116;21.296;2023-05-16T04:30:30;9.35;;;5.35;;
54921;SDS011;40824;45.116;21.296;2023-05-16T04:32:57;6.32;;;5.25;;
54921;SDS011;40824;45.116;21.296;2023-05-16T04:35:23;8.73;;;5.60;;
54921;SDS011;40824;45.116;21.296;2023-05-16T04:37:49;9.80;;;5.60;;
54921;SDS011;40824;45.116;21.296;2023-05-16T04:40:15;9.25;;;5.55;;
54921;SDS011;40824;45.116;21.296;2023-05-16T04:42:41;9.65;;;5.50;;
54921;SDS011;40824;45.116;21.296;2023-05-16T04:45:07;9.13;;;5.03;;
54921;SDS011;40824;45.116;21.296;2023-05-16T04:47:38;8.00;;;5.35;;
54921;SDS011;40824;45.116;21.296;2023-05-16T04:50:05;7.43;;;4.57;;
54921;SDS011;40824;45.116;21.296;2023-05-16T04:52:32;8.60;;;5.13;;
54921;SDS011;40824;45.116;21.296;2023-05-16T04:54:58;8.05;;;4.93;;
54921;SDS011;40824;45.116;21.296;2023-05-16T04:57:25;9.43;;;5.80;;
54921;SDS011;40824;45.116;21.296;2023-05-16T04:59:52;7.88;;;5.13;;
54921;SDS011;40824;45.116;21.296;2023-05-16T05:02:18;9.50;;;4.90;;
54921;SDS011;40824;45.116;21.296;2023-05-16T05:04:44;9.75;;;5.97;;
54921;SDS011;40824;45.116;21.296;2023-05-16T05:07:10;10.80;;;5.13;;
54921;SDS011;40824;45.116;21.296;2023-05-16T05:09:37;11.48;;;5.93;;
54921;SDS011;40824;45.116;21.296;2023-05-16T05:12:04;11.77;;;5.43;;
54921;SDS011;40824;45.116;21.296;2023-05-16T05:14:30;16.60;;;5.57;;
54921;SDS011;40824;45.116;21.296;2023-05-16T05:16:57;8.70;;;4.90;;
54921;SDS011;40824;45.116;21.296;2023-05-16T05:19:23;11.63;;;5.88;;
54921;SDS011;40824;45.116;21.296;2023-05-16T05:21:49;9.82;;;5.90;;
54921;SDS011;40824;45.116;21.296;2023-05-16T05:24:15;10.68;;;5.22;;
54921;SDS011;40824;45.116;21.296;2023-05-16T05:26:41;8.55;;;6.05;;
54921;SDS011;40824;45.116;21.296;2023-05-16T05:29:07;11.18;;;5.60;;
54921;SDS011;40824;45.116;21.296;2023-05-16T05:31:33;10.30;;;5.45;;
54921;SDS011;40824;45.116;21.296;2023-05-16T05:33:59;11.00;;;5.10;;
54921;SDS011;40824;45.116;21.296;2023-05-16T05:36:25;12.77;;;5.25;;
54921;SDS011;40824;45.116;21.296;2023-05-16T05:38:51;14.15;;;4.80;;
54921;SDS011;40824;45.116;21.296;2023-05-16T05:41:17;11.00;;;4.78;;
54921;SDS011;40824;45.116;21.296;2023-05-16T05:43:43;7.97;;;4.82;;
54921;SDS011;40824;45.116;21.296;2023-05-16T05:46:10;16.58;;;6.53;;
54921;SDS011;40824;45.116;21.296;2023-05-16T05:48:36;11.65;;;6.00;;
54921;SDS011;40824;45.116;21.296;2023-05-16T05:51:02;12.75;;;5.88;;
54921;SDS011;40824;45.116;21.296;2023-05-16T05:53:28;9.68;;;6.28;;
54921;SDS011;40824;45.116;21.296;2023-05-16T05:55:54;11.52;;;6.38;;
54921;SDS011;40824;45.116;21.296;2023-05-16T05:58:20;15.13;;;5.10;;
54921;SDS011;40824;45.116;21.296;2023-05-16T06:00:47;6.88;;;4.22;;
54921;SDS011;40824;45.116;21.296;2023-05-16T06:03:13;15.43;;;4.95;;
54921;SDS011;40824;45.116;21.296;2023-05-16T06:05:40;15.05;;;4.45;;
54921;SDS011;40824;45.116;21.296;2023-05-16T06:08:06;9.68;;;3.88;;
54921;SDS011;40824;45.116;21.296;2023-05-16T06:10:32;10.68;;;3.97;;
54921;SDS011;40824;45.116;21.296;2023-05-16T06:12:58;9.68;;;4.70;;
54921;SDS011;40824;45.116;21.296;2023-05-16T06:15:24;13.57;;;4.28;;
54921;SDS011;40824;45.116;21.296;2023-05-16T06:17:51;11.57;;;5.15;;
54921;SDS011;40824;45.116;21.296;2023-05-16T06:20:17;16.80;;;4.93;;
54921;SDS011;40824;45.116;21.296;2023-05-16T06:22:43;11.93;;;5.40;;
54921;SDS011;40824;45.116;21.296;2023-05-16T06:25:09;12.13;;;5.22;;
54921;SDS011;40824;45.116;21.296;2023-05-16T06:27:35;10.10;;;5.15;;
54921;SDS011;40824;45.116;21.296;2023-05-16T06:30:02;10.60;;;6.57;;
54921;SDS011;40824;45.116;21.296;2023-05-16T06:32:28;12.77;;;5.93;;
54921;SDS011;40824;45.116;21.296;2023-05-16T06:34:54;15.05;;;5.65;;
54921;SDS011;40824;45.116;21.296;2023-05-16T06:37:20;11.25;;;6.10;;
54921;SDS011;40824;45.116;21.296;2023-05-16T06:39:47;14.52;;;6.07;;
54921;SDS011;40824;45.116;21.296;2023-05-16T06:42:14;8.65;;;4.40;;
54921;SDS011;40824;45.116;21.296;2023-05-16T06:44:41;13.40;;;5.38;;
54921;SDS011;40824;45.116;21.296;2023-05-16T06:47:07;9.23;;;5.00;;
54921;SDS011;40824;45.116;21.296;2023-05-16T06:49:33;11.02;;;4.97;;
54921;SDS011;40824;45.116;21.296;2023-05-16T06:51:59;16.65;;;5.65;;
54921;SDS011;40824;45.116;21.296;2023-05-16T06:54:25;13.55;;;4.28;;
54921;SDS011;40824;45.116;21.296;2023-05-16T06:56:51;10.75;;;5.55;;
54921;SDS011;40824;45.116;21.296;2023-05-16T06:59:17;15.98;;;5.28;;
54921;SDS011;40824;45.116;21.296;2023-05-16T07:01:43;10.80;;;5.40;;
54921;SDS011;40824;45.116;21.296;2023-05-16T07:04:10;16.92;;;5.75;;
54921;SDS011;40824;45.116;21.296;2023-05-16T07:06:36;10.02;;;4.88;;
54921;SDS011;40824;45.116;21.296;2023-05-16T07:09:02;9.55;;;4.65;;
54921;SDS011;40824;45.116;21.296;2023-05-16T07:11:28;11.70;;;5.20;;
54921;SDS011;40824;45.116;21.296;2023-05-16T07:13:54;10.00;;;5.47;;
54921;SDS011;40824;45.116;21.296;2023-05-16T07:16:21;8.13;;;5.07;;
54921;SDS011;40824;45.116;21.296;2023-05-16T07:18:47;15.18;;;6.65;;
54921;SDS011;40824;45.116;21.296;2023-05-16T07:21:13;13.15;;;6.18;;
54921;SDS011;40824;45.116;21.296;2023-05-16T07:23:39;9.57;;;5.78;;
54921;SDS011;40824;45.116;21.296;2023-05-16T07:26:05;14.07;;;5.70;;
54921;SDS011;40824;45.116;21.296;2023-05-16T07:28:31;17.33;;;6.60;;
54921;SDS011;40824;45.116;21.296;2023-05-16T07:30:57;13.48;;;6.55;;
54921;SDS011;40824;45.116;21.296;2023-05-16T07:33:24;13.90;;;6.35;;
54921;SDS011;40824;45.116;21.296;2023-05-16T07:35:51;12.13;;;6.22;;
54921;SDS011;40824;45.116;21.296;2023-05-16T07:38:19;15.93;;;6.35;;
54921;SDS011;40824;45.116;21.296;2023-05-16T07:40:45;12.20;;;5.43;;
54921;SDS011;40824;45.116;21.296;2023-05-16T07:43:11;10.18;;;5.75;;
54921;SDS011;40824;45.116;21.296;2023-05-16T07:45:37;9.35;;;5.38;;
54921;SDS011;40824;45.116;21.296;2023-05-16T07:48:04;10.27;;;5.68;;
54921;SDS011;40824;45.116;21.296;2023-05-16T07:50:30;11.50;;;5.22;;
54921;SDS011;40824;45.116;21.296;2023-05-16T07:52:56;10.10;;;5.90;;
54921;SDS011;40824;45.116;21.296;2023-05-16T07:55:22;13.23;;;5.03;;
54921;SDS011;40824;45.116;21.296;2023-05-16T07:57:48;11.30;;;4.18;;
54921;SDS011;40824;45.116;21.296;2023-05-16T08:00:15;8.40;;;4.55;;
54921;SDS011;40824;45.116;21.296;2023-05-16T08:02:41;9.43;;;4.05;;
54921;SDS011;40824;45.116;21.296;2023-05-16T08:05:08;8.68;;;4.10;;
54921;SDS011;40824;45.116;21.296;2023-05-16T08:07:34;12.90;;;5.22;;
54921;SDS011;40824;45.116;21.296;2023-05-16T08:10:00;12.60;;;4.15;;
54921;SDS011;40824;45.116;21.296;2023-05-16T08:12:27;10.10;;;4.55;;
54921;SDS011;40824;45.116;21.296;2023-05-16T08:14:55;11.10;;;4.30;;
54921;SDS011;40824;45.116;21.296;2023-05-16T08:17:21;9.38;;;4.13;;
54921;SDS011;40824;45.116;21.296;2023-05-16T08:19:47;12.50;;;4.85;;
54921;SDS011;40824;45.116;21.296;2023-05-16T08:22:13;10.00;;;4.40;;
54921;SDS011;40824;45.116;21.296;2023-05-16T08:24:40;12.73;;;4.72;;
54921;SDS011;40824;45.116;21.296;2023-05-16T08:27:07;9.38;;;3.90;;
54921;SDS011;40824;45.116;21.296;2023-05-16T08:29:33;12.75;;;5.13;;
54921;SDS011;40824;45.116;21.296;2023-05-16T08:31:59;6.22;;;4.07;;
54921;SDS011;40824;45.116;21.296;2023-05-16T08:34:25;15.02;;;4.88;;
54921;SDS011;40824;45.116;21.296;2023-05-16T08:36:52;13.70;;;5.20;;
54921;SDS011;40824;45.116;21.296;2023-05-16T08:39:19;15.85;;;4.97;;
54921;SDS011;40824;45.116;21.296;2023-05-16T08:41:45;8.73;;;5.18;;
54921;SDS011;40824;45.116;21.296;2023-05-16T08:44:11;16.42;;;5.82;;
54921;SDS011;40824;45.116;21.296;2023-05-16T08:46:45;22.27;;;6.55;;
54921;SDS011;40824;45.116;21.296;2023-05-16T08:49:15;15.00;;;5.68;;
54921;SDS011;40824;45.116;21.296;2023-05-16T08:51:42;15.02;;;5.18;;
54921;SDS011;40824;45.116;21.296;2023-05-16T08:54:10;12.88;;;5.60;;
54921;SDS011;40824;45.116;21.296;2023-05-16T08:56:40;14.70;;;5.60;;
54921;SDS011;40824;45.116;21.296;2023-05-16T08:59:07;14.57;;;5.38;;
54921;SDS011;40824;45.116;21.296;2023-05-16T09:01:33;14.50;;;5.47;;
54921;SDS011;40824;45.116;21.296;2023-05-16T09:03:59;12.98;;;4.78;;
54921;SDS011;40824;45.116;21.296;2023-05-16T09:06:26;16.23;;;5.13;;
54921;SDS011;40824;45.116;21.296;2023-05-16T09:08:53;9.05;;;4.25;;
54921;SDS011;40824;45.116;21.296;2023-05-16T09:11:19;17.40;;;5.13;;
54921;SDS011;40824;45.116;21.296;2023-05-16T09:13:46;10.13;;;4.80;;
54921;SDS011;40824;45.116;21.296;2023-05-16T09:16:13;8.90;;;4.70;;
54921;SDS011;40824;45.116;21.296;2023-05-16T09:18:39;10.73;;;4.65;;
54921;SDS011;40824;45.116;21.296;2023-05-16T09:21:07;9.63;;;4.50;;
54921;SDS011;40824;45.116;21.296;2023-05-16T09:23:34;11.52;;;4.88;;
54921;SDS011;40824;45.116;21.296;2023-05-16T09:26:00;12.93;;;4.93;;
54921;SDS011;40824;45.116;21.296;2023-05-16T09:28:28;16.88;;;5.35;;
54921;SDS011;40824;45.116;21.296;2023-05-16T09:30:54;16.48;;;4.70;;
54921;SDS011;40824;45.116;21.296;2023-05-16T09:33:23;14.50;;;5.80;;
54921;SDS011;40824;45.116;21.296;2023-05-16T09:35:56;13.13;;;5.65;;
54921;SDS011;40824;45.116;21.296;2023-05-16T09:38:22;9.23;;;4.37;;
54921;SDS011;40824;45.116;21.296;2023-05-16T09:40:49;12.60;;;5.45;;
54921;SDS011;40824;45.116;21.296;2023-05-16T09:43:16;9.63;;;5.10;;
54921;SDS011;40824;45.116;21.296;2023-05-16T09:45:46;10.23;;;5.00;;
54921;SDS011;40824;45.116;21.296;2023-05-16T09:48:13;10.98;;;5.45;;
54921;SDS011;40824;45.116;21.296;2023-05-16T09:50:43;13.30;;;5.60;;
54921;SDS011;40824;45.116;21.296;2023-05-16T09:53:12;10.57;;;5.13;;
54921;SDS011;40824;45.116;21.296;2023-05-16T09:55:38;12.77;;;5.53;;
54921;SDS011;40824;45.116;21.296;2023-05-16T09:58:04;13.02;;;5.13;;
54921;SDS011;40824;45.116;21.296;2023-05-16T10:00:31;15.60;;;5.70;;
54921;SDS011;40824;45.116;21.296;2023-05-16T10:02:57;14.20;;;5.22;;
54921;SDS011;40824;45.116;21.296;2023-05-16T10:05:25;8.57;;;4.93;;
54921;SDS011;40824;45.116;21.296;2023-05-16T10:07:52;14.75;;;5.65;;
54921;SDS011;40824;45.116;21.296;2023-05-16T10:10:20;15.95;;;7.10;;
54921;SDS011;40824;45.116;21.296;2023-05-16T10:12:46;10.15;;;4.45;;
54921;SDS011;40824;45.116;21.296;2023-05-16T10:15:13;11.48;;;4.90;;
54921;SDS011;40824;45.116;21.296;2023-05-16T10:17:39;8.95;;;5.07;;
54921;SDS011;40824;45.116;21.296;2023-05-16T10:20:09;14.30;;;5.10;;
54921;SDS011;40824;45.116;21.296;2023-05-16T10:22:38;12.05;;;4.80;;
54921;SDS011;40824;45.116;21.296;2023-05-16T10:25:14;7.50;;;4.43;;
54921;SDS011;40824;45.116;21.296;2023-05-16T10:27:42;15.10;;;5.43;;
54921;SDS011;40824;45.116;21.296;2023-05-16T10:30:08;12.25;;;5.25;;
54921;SDS011;40824;45.116;21.296;2023-05-16T10:32:35;7.70;;;4.22;;
54921;SDS011;40824;45.116;21.296;2023-05-16T10:35:02;8.15;;;4.85;;
54921;SDS011;40824;45.116;21.296;2023-05-16T10:37:32;13.27;;;4.78;;
54921;SDS011;40824;45.116;21.296;2023-05-16T10:39:58;14.40;;;5.18;;
54921;SDS011;40824;45.116;21.296;2023-05-16T10:42:24;15.27;;;4.35;;
54921;SDS011;40824;45.116;21.296;2023-05-16T10:44:54;12.32;;;5.30;;
54921;SDS011;40824;45.116;21.296;2023-05-16T10:47:20;11.25;;;5.13;;
54921;SDS011;40824;45.116;21.296;2023-05-16T10:49:48;10.25;;;4.75;;
54921;SDS011;40824;45.116;21.296;2023-05-16T10:52:14;12.20;;;4.65;;
54921;SDS011;40824;45.116;21.296;2023-05-16T10:54:42;14.10;;;4.85;;
54921;SDS011;40824;45.116;21.296;2023-05-16T10:57:10;16.45;;;5.00;;
54921;SDS011;40824;45.116;21.296;2023-05-16T10:59:40;9.77;;;4.95;;
54921;SDS011;40824;45.116;21.296;2023-05-16T11:02:20;10.45;;;5.07;;
54921;SDS011;40824;45.116;21.296;2023-05-16T11:04:54;10.95;;;5.40;;
54921;SDS011;40824;45.116;21.296;2023-05-16T11:07:20;8.38;;;4.93;;
54921;SDS011;40824;45.116;21.296;2023-05-16T11:12:49;9.90;;;4.22;;
54921;SDS011;40824;45.116;21.296;2023-05-16T11:15:23;12.20;;;5.05;;
54921;SDS011;40824;45.116;21.296;2023-05-16T11:17:50;9.55;;;4.63;;
54921;SDS011;40824;45.116;21.296;2023-05-16T11:20:26;9.68;;;4.53;;
54921;SDS011;40824;45.116;21.296;2023-05-16T11:23:16;12.02;;;4.90;;
54921;SDS011;40824;45.116;21.296;2023-05-16T11:25:38;9.55;;;5.20;;
54921;SDS011;40824;45.116;21.296;2023-05-16T11:28:05;11.45;;;5.22;;
54921;SDS011;40824;45.116;21.296;2023-05-16T11:30:33;10.43;;;5.45;;
54921;SDS011;40824;45.116;21.296;2023-05-16T11:32:59;8.95;;;6.28;;
54921;SDS011;40824;45.116;21.296;2023-05-16T11:35:25;8.77;;;5.15;;
54921;SDS011;40824;45.116;21.296;2023-05-16T11:37:51;13.27;;;5.95;;
54921;SDS011;40824;45.116;21.296;2023-05-16T11:40:17;10.20;;;5.70;;
54921;SDS011;40824;45.116;21.296;2023-05-16T11:42:44;9.50;;;4.97;;
54921;SDS011;40824;45.116;21.296;2023-05-16T11:45:16;14.82;;;5.45;;
54921;SDS011;40824;45.116;21.296;2023-05-16T11:47:43;11.73;;;5.38;;
54921;SDS011;40824;45.116;21.296;2023-05-16T11:50:12;9.93;;;5.75;;
54921;SDS011;40824;45.116;21.296;2023-05-16T11:52:38;15.18;;;5.40;;
54921;SDS011;40824;45.116;21.296;2023-05-16T11:55:07;11.27;;;5.38;;
54921;SDS011;40824;45.116;21.296;2023-05-16T11:57:40;11.40;;;5.32;;
54921;SDS011;40824;45.116;21.296;2023-05-16T12:00:43;14.18;;;5.97;;
54921;SDS011;40824;45.116;21.296;2023-05-16T12:02:59;9.43;;;6.25;;
54921;SDS011;40824;45.116;21.296;2023-05-16T12:05:26;11.30;;;5.40;;
54921;SDS011;40824;45.116;21.296;2023-05-16T12:07:55;17.58;;;6.65;;
54921;SDS011;40824;45.116;21.296;2023-05-16T12:10:21;9.15;;;4.90;;
54921;SDS011;40824;45.116;21.296;2023-05-16T12:12:47;9.48;;;4.78;;
54921;SDS011;40824;45.116;21.296;2023-05-16T12:15:16;7.95;;;4.40;;
54921;SDS011;40824;45.116;21.296;2023-05-16T12:17:42;10.20;;;5.22;;
54921;SDS011;40824;45.116;21.296;2023-05-16T12:20:09;12.02;;;5.32;;
54921;SDS011;40824;45.116;21.296;2023-05-16T12:22:40;14.65;;;5.30;;
54921;SDS011;40824;45.116;21.296;2023-05-16T12:28:10;10.25;;;4.60;;
54921;SDS011;40824;45.116;21.296;2023-05-16T12:30:38;10.15;;;4.45;;
54921;SDS011;40824;45.116;21.296;2023-05-16T12:33:10;15.85;;;5.20;;
54921;SDS011;40824;45.116;21.296;2023-05-16T12:35:38;14.18;;;4.22;;
54921;SDS011;40824;45.116;21.296;2023-05-16T12:38:08;14.65;;;4.43;;
54921;SDS011;40824;45.116;21.296;2023-05-16T12:40:35;14.13;;;4.05;;
54921;SDS011;40824;45.116;21.296;2023-05-16T12:43:03;14.70;;;5.10;;
54921;SDS011;40824;45.116;21.296;2023-05-16T12:45:31;13.30;;;4.60;;
54921;SDS011;40824;45.116;21.296;2023-05-16T12:48:02;13.18;;;5.47;;
54921;SDS011;40824;45.116;21.296;2023-05-16T12:50:30;11.50;;;4.63;;
54921;SDS011;40824;45.116;21.296;2023-05-16T12:52:58;11.52;;;5.03;;
54921;SDS011;40824;45.116;21.296;2023-05-16T12:55:25;14.00;;;5.07;;
54921;SDS011;40824;45.116;21.296;2023-05-16T12:57:51;12.07;;;4.72;;
54921;SDS011;40824;45.116;21.296;2023-05-16T13:00:18;18.35;;;5.25;;
54921;SDS011;40824;45.116;21.296;2023-05-16T13:02:45;19.85;;;5.45;;
54921;SDS011;40824;45.116;21.296;2023-05-16T13:05:11;16.98;;;4.35;;
54921;SDS011;40824;45.116;21.296;2023-05-16T13:07:37;11.70;;;4.55;;
54921;SDS011;40824;45.116;21.296;2023-05-16T13:10:05;14.15;;;5.03;;
54921;SDS011;40824;45.116;21.296;2023-05-16T13:12:34;14.63;;;5.38;;
54921;SDS011;40824;45.116;21.296;2023-05-16T13:15:00;13.68;;;5.07;;
54921;SDS011;40824;45.116;21.296;2023-05-16T13:17:26;13.27;;;5.15;;
54921;SDS011;40824;45.116;21.296;2023-05-16T13:19:54;14.43;;;5.05;;
54921;SDS011;40824;45.116;21.296;2023-05-16T13:22:20;11.77;;;5.35;;
54921;SDS011;40824;45.116;21.296;2023-05-16T13:24:46;11.07;;;5.50;;
54921;SDS011;40824;45.116;21.296;2023-05-16T13:27:15;16.65;;;5.78;;
54921;SDS011;40824;45.116;21.296;2023-05-16T13:29:44;14.77;;;5.10;;
54921;SDS011;40824;45.116;21.296;2023-05-16T13:32:10;12.27;;;4.80;;
54921;SDS011;40824;45.116;21.296;2023-05-16T13:34:36;12.23;;;4.85;;
54921;SDS011;40824;45.116;21.296;2023-05-16T13:37:02;13.60;;;5.45;;
54921;SDS011;40824;45.116;21.296;2023-05-16T13:39:28;11.50;;;5.38;;
54921;SDS011;40824;45.116;21.296;2023-05-16T13:41:54;15.32;;;4.70;;
54921;SDS011;40824;45.116;21.296;2023-05-16T13:44:20;17.23;;;5.22;;
54921;SDS011;40824;45.116;21.296;2023-05-16T13:46:46;21.65;;;4.93;;
54921;SDS011;40824;45.116;21.296;2023-05-16T13:49:13;15.02;;;5.45;;
54921;SDS011;40824;45.116;21.296;2023-05-16T13:51:39;14.23;;;5.07;;
54921;SDS011;40824;45.116;21.296;2023-05-16T13:54:05;12.07;;;5.25;;
54921;SDS011;40824;45.116;21.296;2023-05-16T13:56:31;11.00;;;5.15;;
54921;SDS011;40824;45.116;21.296;2023-05-16T13:58:57;11.73;;;5.10;;
54921;SDS011;40824;45.116;21.296;2023-05-16T14:01:23;13.13;;;5.82;;
54921;SDS011;40824;45.116;21.296;2023-05-16T14:03:49;11.63;;;5.72;;
54921;SDS011;40824;45.116;21.296;2023-05-16T14:06:15;14.25;;;5.85;;
54921;SDS011;40824;45.116;21.296;2023-05-16T14:08:41;8.25;;;5.38;;
54921;SDS011;40824;45.116;21.296;2023-05-16T14:11:07;11.52;;;5.25;;
54921;SDS011;40824;45.116;21.296;2023-05-16T14:13:33;10.00;;;4.68;;
54921;SDS011;40824;45.116;21.296;2023-05-16T14:16:00;14.88;;;5.57;;
54921;SDS011;40824;45.116;21.296;2023-05-16T14:18:26;9.60;;;4.85;;
54921;SDS011;40824;45.116;21.296;2023-05-16T14:20:52;15.27;;;5.40;;
54921;SDS011;40824;45.116;21.296;2023-05-16T14:23:20;10.85;;;5.05;;
54921;SDS011;40824;45.116;21.296;2023-05-16T14:25:46;12.20;;;5.15;;
54921;SDS011;40824;45.116;21.296;2023-05-16T14:28:13;9.95;;;4.47;;
54921;SDS011;40824;45.116;21.296;2023-05-16T14:30:39;15.10;;;4.95;;
54921;SDS011;40824;45.116;21.296;2023-05-16T14:33:06;14.77;;;5.45;;
54921;SDS011;40824;45.116;21.296;2023-05-16T14:35:32;10.10;;;4.72;;
54921;SDS011;40824;45.116;21.296;2023-05-16T14:37:58;11.98;;;4.90;;